Union Grove, AL (35175)

1:03 PM CST on February 23, 2017 (GMT -0600)
Top of Ga. Mtn. | | Change Station

Elev 1066 ft 34.39 °N, 86.39 °W | Updated 8 seconds ago

Overcast
Overcast
68.6 °F
Feels Like 68.6 °F
N
3.5
Wind Variable Wind from NE
Gusts 3.5 mph

Today
High -- | Low -- °F
--% Chance of Precip.
Yesterday
High -- | Low -- °F
Precip. -- in
Pressure 29.82 in
Visibility 10.0 miles
Clouds Overcast 3900 ft
Dew Point 56 °F
Humidity 63%
Rainfall 0.00 in
Snow Depth Not available.
6:21 AM 5:36 PM
Waning Crescent, 9% visible
METAR K8A0 231855Z AUTO 18006KT 10SM OVC039 21/17 A2982 RMK AO2
Pressure 29.82 in
Visibility 10.0 miles
Clouds Overcast 3900 ft
Dew Point 56 °F
Humidity 63%
Rainfall 0.00 in
Snow Depth Not available.
6:21 AM 5:36 PM
Waning Crescent, 9% visible
METAR K8A0 231855Z AUTO 18006KT 10SM OVC039 21/17 A2982 RMK AO2

Get Your Daily Forecast Email!

Thanks for signing up!

Be on the lookout for a verification email in your inbox.

You'll start receiving the daily forecast at 8 AM.

×

10-Day Weather Forecast

Almanac

Astronomy

Feb. 23, 2017 Rise Set
Actual Time
Civil Twilight
Nautical Twilight
Astronomical Twilight
Moon
Length of Visible Light
Length of Day
Tomorrow will be .
, % of the Moon is Illuminated

Today's Extremes

State Highs State Lows

Community

WunderPhotos

Upload Photos

1,962,540 photos uploaded!

WunderBlog® & News

Nearby

Air Quality

  Air Quality AQ Index Pollutant
Not available.

Snow Depth

Station Depth Elevation

Earthquake Activity

City Distance Mag. Time & Date
Minimum magnitude displayed is 2.5.

Coastal Water Temperatures

Place Temperature

Stations

Nearby Weather Stations

Station Location Temp. Windchill Dew Point Humidity Wind Precip. Elev Updated Type
                   

Watches & Warnings

There are currently no watches in effect.